Time;durP1;ratioP1;P1;durP2;ratioP2;P2;SDS_P1;SDS_P2;PMS_P1;PMS_P2;Temp;Humidity;BMP_temperature;BMP_pressure;BME280_temperature;BME280_humidity;BME280_pressure;Samples;Min_cycle;Max_cycle;Signal;HPM_P1;HPM_P2
2022/07/14 00:01:27;;;;;;;13.87;3.87;;;;;;;;;;4995163;28;20685;-76
2022/07/14 00:03:55;;;;;;;13.67;3.63;;;;;;;;;;4995538;28;20574;-75
2022/07/14 00:06:25;;;;;;;12.70;3.90;;;;;;;;;;4995700;28;20700;-76
2022/07/14 00:08:54;;;;;;;9.83;3.60;;;;;;;;;;4995650;28;20200;-76
2022/07/14 00:11:22;;;;;;;14.83;3.77;;;;;;;;;;4976320;28;20563;-76
2022/07/14 00:13:50;;;;;;;13.83;3.67;;;;;;;;;;4975957;28;20209;-76
2022/07/14 00:16:19;;;;;;;16.03;3.87;;;;;;;;;;4975429;28;20273;-75
2022/07/14 00:18:47;;;;;;;14.50;3.67;;;;;;;;;;4975344;28;20206;-76
2022/07/14 00:21:17;;;;;;;13.20;3.93;;;;;;;;;;4975674;28;20540;-76
2022/07/14 00:23:48;;;;;;;14.73;4.37;;;;;;;;;;4975826;28;20212;-76
2022/07/14 00:26:16;;;;;;;13.90;3.97;;;;;;;;;;4993319;28;20705;-76
2022/07/14 00:28:45;;;;;;;15.60;4.00;;;;;;;;;;4995751;28;20208;-76
2022/07/14 00:31:14;;;;;;;16.70;4.53;;;;;;;;;;5014539;28;20220;-76
2022/07/14 00:33:42;;;;;;;16.23;4.23;;;;;;;;;;5013787;28;20627;-76
2022/07/14 00:36:11;;;;;;;9.97;3.60;;;;;;;;;;4995202;28;20229;-76
2022/07/14 00:38:39;;;;;;;12.07;3.80;;;;;;;;;;4994977;28;20276;-76
2022/07/14 00:41:09;;;;;;;16.23;4.50;;;;;;;;;;4994725;28;20212;-75
2022/07/14 00:43:38;;;;;;;15.67;4.27;;;;;;;;;;4995123;28;20267;-76
2022/07/14 00:46:07;;;;;;;14.63;4.13;;;;;;;;;;4994163;28;20240;-76
2022/07/14 00:48:35;;;;;;;12.73;3.77;;;;;;;;;;4994820;28;20213;-76
2022/07/14 00:51:04;;;;;;;15.10;3.90;;;;;;;;;;4994179;28;20217;-76
2022/07/14 00:53:33;;;;;;;15.67;4.30;;;;;;;;;;4994398;28;20321;-76
2022/07/14 00:56:02;;;;;;;13.73;3.77;;;;;;;;;;4994259;28;20226;-76
2022/07/14 00:58:32;;;;;;;10.17;3.77;;;;;;;;;;4994377;28;20212;-76
2022/07/14 01:01:00;;;;;;;11.47;3.93;;;;;;;;;;4994255;28;20213;-76
2022/07/14 01:03:29;;;;;;;12.83;3.87;;;;;;;;;;4994678;28;20209;-76
2022/07/14 01:05:57;;;;;;;12.60;3.70;;;;;;;;;;4994319;28;20237;-76
2022/07/14 01:08:26;;;;;;;12.83;4.00;;;;;;;;;;4994638;28;20228;-76
2022/07/14 01:10:54;;;;;;;11.67;3.67;;;;;;;;;;4994383;28;20225;-76
2022/07/14 01:13:23;;;;;;;13.37;3.70;;;;;;;;;;4994483;28;20232;-76
2022/07/14 01:15:52;;;;;;;14.23;4.07;;;;;;;;;;4994442;28;20228;-76
2022/07/14 01:18:21;;;;;;;11.77;3.53;;;;;;;;;;4994667;28;20263;-77
2022/07/14 01:20:51;;;;;;;12.47;3.63;;;;;;;;;;4994629;28;20233;-76
2022/07/14 01:23:20;;;;;;;12.23;4.33;;;;;;;;;;4994227;28;20263;-76
2022/07/14 01:25:49;;;;;;;9.67;3.77;;;;;;;;;;4993742;28;20275;-76
2022/07/14 01:28:17;;;;;;;13.50;4.40;;;;;;;;;;4994289;28;20212;-76
2022/07/14 01:30:46;;;;;;;11.17;3.53;;;;;;;;;;4994524;28;20237;-76
2022/07/14 01:33:14;;;;;;;15.33;3.67;;;;;;;;;;4994478;28;20205;-76
2022/07/14 01:35:43;;;;;;;14.67;4.07;;;;;;;;;;4993941;28;20686;-76
2022/07/14 01:38:12;;;;;;;12.20;3.77;;;;;;;;;;4993852;28;20201;-76
2022/07/14 01:40:41;;;;;;;13.20;4.00;;;;;;;;;;4994130;28;20255;-76
2022/07/14 01:43:10;;;;;;;16.10;4.27;;;;;;;;;;4994344;28;20209;-76
2022/07/14 01:45:38;;;;;;;14.63;3.87;;;;;;;;;;4994315;28;20618;-76
2022/07/14 01:48:07;;;;;;;16.73;4.30;;;;;;;;;;4993629;28;20205;-76
2022/07/14 01:50:35;;;;;;;12.83;4.10;;;;;;;;;;4994137;28;20255;-76
2022/07/14 01:53:04;;;;;;;13.73;3.93;;;;;;;;;;4994229;28;20572;-76
2022/07/14 01:55:32;;;;;;;12.17;3.60;;;;;;;;;;4993892;28;20225;-76
2022/07/14 01:58:02;;;;;;;11.67;3.47;;;;;;;;;;4996188;28;20213;-76
2022/07/14 02:00:31;;;;;;;15.40;3.53;;;;;;;;;;4997451;28;20216;-76
2022/07/14 02:02:59;;;;;;;11.80;3.77;;;;;;;;;;4997862;28;20212;-76
2022/07/14 02:05:28;;;;;;;9.40;3.60;;;;;;;;;;4997584;28;20240;-76
2022/07/14 02:07:56;;;;;;;14.73;4.37;;;;;;;;;;4997912;28;20666;-76
2022/07/14 02:13:12;;;;;;;14.50;3.90;;;;;;;;;;4997267;28;20233;-75
2022/07/14 02:15:41;;;;;;;12.30;3.27;;;;;;;;;;4997115;28;20225;-76
2022/07/14 02:18:09;;;;;;;9.53;3.50;;;;;;;;;;4997471;28;20257;-75
2022/07/14 02:20:38;;;;;;;15.10;4.37;;;;;;;;;;4997191;28;20296;-76
2022/07/14 02:23:06;;;;;;;14.30;4.17;;;;;;;;;;4997060;28;20205;-76
2022/07/14 02:25:35;;;;;;;20.97;4.53;;;;;;;;;;4997272;28;20225;-76
2022/07/14 02:28:04;;;;;;;17.97;4.50;;;;;;;;;;4997261;28;20260;-76
2022/07/14 02:30:34;;;;;;;10.47;3.37;;;;;;;;;;4997378;28;20665;-76
2022/07/14 02:33:02;;;;;;;19.10;4.27;;;;;;;;;;4996653;28;20221;-76
2022/07/14 02:35:30;;;;;;;14.00;3.40;;;;;;;;;;4996996;28;20225;-76
2022/07/14 02:37:59;;;;;;;12.43;3.63;;;;;;;;;;4997055;28;20845;-75
2022/07/14 02:40:27;;;;;;;12.90;3.60;;;;;;;;;;4997028;28;20619;-76
2022/07/14 02:42:56;;;;;;;13.67;4.00;;;;;;;;;;4997129;28;20202;-76
2022/07/14 02:45:24;;;;;;;16.27;4.00;;;;;;;;;;4997018;28;20236;-76
2022/07/14 02:47:54;;;;;;;14.77;3.60;;;;;;;;;;4997043;28;20205;-76
2022/07/14 02:50:23;;;;;;;12.53;3.90;;;;;;;;;;4997183;28;20263;-76
2022/07/14 02:52:51;;;;;;;10.87;3.73;;;;;;;;;;4996809;28;20233;-76
2022/07/14 02:55:28;;;;;;;14.77;4.13;;;;;;;;;;4996451;28;20229;-76
2022/07/14 02:57:56;;;;;;;14.53;3.77;;;;;;;;;;4996799;28;20204;-76
2022/07/14 03:00:25;;;;;;;10.70;3.30;;;;;;;;;;4977210;28;20209;-76
2022/07/14 03:02:55;;;;;;;11.23;3.60;;;;;;;;;;4977417;28;20213;-76
2022/07/14 03:05:23;;;;;;;12.37;3.60;;;;;;;;;;4989628;28;20592;-76
2022/07/14 03:07:52;;;;;;;14.60;3.70;;;;;;;;;;4996286;28;20680;-76
2022/07/14 03:10:20;;;;;;;11.53;3.70;;;;;;;;;;4996279;28;20259;-75
2022/07/14 03:12:49;;;;;;;15.80;4.07;;;;;;;;;;4996509;28;20221;-76
2022/07/14 03:15:17;;;;;;;13.90;4.27;;;;;;;;;;4996282;28;20232;-76
2022/07/14 03:17:46;;;;;;;12.57;3.53;;;;;;;;;;4977175;28;20210;-76
2022/07/14 03:20:16;;;;;;;11.60;3.53;;;;;;;;;;4976609;28;20256;-76
2022/07/14 03:22:45;;;;;;;9.23;3.67;;;;;;;;;;4976922;28;20244;-76
2022/07/14 03:25:17;;;;;;;11.93;3.70;;;;;;;;;;4976805;28;20256;-76
2022/07/14 03:27:51;;;;;;;12.93;4.27;;;;;;;;;;4976290;28;20240;-76
2022/07/14 03:30:19;;;;;;;12.00;4.10;;;;;;;;;;4976809;28;20598;-76
2022/07/14 03:32:48;;;;;;;14.33;3.97;;;;;;;;;;4976748;28;20218;-76
2022/07/14 03:35:18;;;;;;;15.03;4.67;;;;;;;;;;4976200;28;20210;-76
2022/07/14 03:37:46;;;;;;;14.70;4.47;;;;;;;;;;4976295;28;20205;-76
2022/07/14 03:40:35;;;;;;;16.27;4.33;;;;;;;;;;4976425;28;20711;-76
2022/07/14 03:43:03;;;;;;;19.03;4.40;;;;;;;;;;4976614;28;20213;-76
2022/07/14 03:45:32;;;;;;;15.13;4.57;;;;;;;;;;4976310;28;20730;-76
2022/07/14 03:48:01;;;;;;;14.17;4.10;;;;;;;;;;4976341;28;20693;-76
2022/07/14 03:50:30;;;;;;;15.73;3.93;;;;;;;;;;4976855;28;20205;-76
2022/07/14 03:52:59;;;;;;;13.90;4.40;;;;;;;;;;4975976;28;20232;-75
2022/07/14 03:55:27;;;;;;;14.30;3.97;;;;;;;;;;4976019;28;20230;-76
2022/07/14 03:57:56;;;;;;;12.37;4.20;;;;;;;;;;4976015;28;20197;-76
2022/07/14 04:00:24;;;;;;;12.03;3.77;;;;;;;;;;4975804;28;20210;-76
2022/07/14 04:02:56;;;;;;;11.17;4.00;;;;;;;;;;4976477;28;20205;-76
2022/07/14 04:05:24;;;;;;;10.93;3.70;;;;;;;;;;4976340;28;20244;-75
2022/07/14 04:07:54;;;;;;;16.20;3.83;;;;;;;;;;4976322;28;20214;-74
2022/07/14 04:10:23;;;;;;;12.00;3.90;;;;;;;;;;4987474;28;20205;-74
2022/07/14 04:12:51;;;;;;;13.07;3.93;;;;;;;;;;4994447;28;20228;-74
2022/07/14 04:15:20;;;;;;;12.33;4.10;;;;;;;;;;4994105;28;20225;-74
2022/07/14 04:17:48;;;;;;;13.80;3.87;;;;;;;;;;4994903;28;20674;-74
2022/07/14 04:20:17;;;;;;;9.97;3.87;;;;;;;;;;4997409;28;20542;-74
2022/07/14 04:22:47;;;;;;;14.47;4.00;;;;;;;;;;4994938;28;20208;-74
2022/07/14 04:25:17;;;;;;;13.27;4.40;;;;;;;;;;4999154;28;20209;-74
2022/07/14 04:27:45;;;;;;;13.43;3.70;;;;;;;;;;5003616;28;20666;-74
2022/07/14 04:30:14;;;;;;;11.20;3.97;;;;;;;;;;4993875;28;20205;-74
2022/07/14 04:32:43;;;;;;;17.10;4.87;;;;;;;;;;4994524;28;20232;-74
2022/07/14 04:35:11;;;;;;;14.03;4.20;;;;;;;;;;5001160;28;20258;-74
2022/07/14 04:37:40;;;;;;;11.63;4.07;;;;;;;;;;4994922;28;20252;-74
2022/07/14 04:40:09;;;;;;;13.30;4.17;;;;;;;;;;4994157;28;20215;-74
2022/07/14 04:42:38;;;;;;;13.93;3.83;;;;;;;;;;4994614;28;20205;-74
2022/07/14 04:45:07;;;;;;;9.77;3.43;;;;;;;;;;4991689;28;20282;-74
2022/07/14 04:47:36;;;;;;;10.33;3.47;;;;;;;;;;4993381;28;20209;-74
2022/07/14 04:52:52;;;;;;;9.00;3.50;;;;;;;;;;4992182;28;20213;-74
2022/07/14 04:55:20;;;;;;;14.10;3.80;;;;;;;;;;4993972;28;20231;-74
2022/07/14 04:57:50;;;;;;;13.87;3.73;;;;;;;;;;5006878;28;20231;-74
2022/07/14 05:00:19;;;;;;;12.67;3.30;;;;;;;;;;5000854;28;20252;-74
2022/07/14 05:02:47;;;;;;;11.10;3.73;;;;;;;;;;4994773;28;20201;-74
2022/07/14 05:05:16;;;;;;;11.50;3.50;;;;;;;;;;4992957;28;20212;-74
2022/07/14 05:07:44;;;;;;;13.27;4.30;;;;;;;;;;4997229;28;20201;-74
2022/07/14 05:10:18;;;;;;;10.57;3.50;;;;;;;;;;4996414;28;20264;-74
2022/07/14 05:12:47;;;;;;;14.50;3.43;;;;;;;;;;4992823;28;20224;-74
2022/07/14 05:15:16;;;;;;;8.83;3.30;;;;;;;;;;4992947;28;20706;-74
2022/07/14 05:17:45;;;;;;;12.73;3.63;;;;;;;;;;5001784;28;20207;-74
2022/07/14 05:20:14;;;;;;;11.90;3.43;;;;;;;;;;4988436;28;20904;-74
2022/07/14 05:22:43;;;;;;;8.33;3.57;;;;;;;;;;4993447;28;20740;-74
2022/07/14 05:25:13;;;;;;;11.57;3.83;;;;;;;;;;4993811;28;20205;-74
2022/07/14 05:27:41;;;;;;;8.53;3.13;;;;;;;;;;4993605;28;20205;-74
2022/07/14 05:30:11;;;;;;;9.83;3.40;;;;;;;;;;4993576;28;20197;-74
2022/07/14 05:32:40;;;;;;;9.57;3.33;;;;;;;;;;4997455;28;20658;-74
2022/07/14 05:35:09;;;;;;;11.60;3.43;;;;;;;;;;4997912;28;20216;-74
2022/07/14 05:37:38;;;;;;;12.30;3.30;;;;;;;;;;4998396;28;20587;-74
2022/07/14 05:40:06;;;;;;;11.63;3.27;;;;;;;;;;5000269;28;20247;-74
2022/07/14 05:42:35;;;;;;;14.03;3.60;;;;;;;;;;4998102;28;20209;-75
2022/07/14 05:45:03;;;;;;;9.83;3.00;;;;;;;;;;4997239;28;20658;-74
2022/07/14 05:47:32;;;;;;;10.00;3.03;;;;;;;;;;4997886;28;20605;-74
2022/07/14 05:50:01;;;;;;;13.27;3.33;;;;;;;;;;4997408;28;20252;-74
2022/07/14 05:52:30;;;;;;;10.07;3.50;;;;;;;;;;4998215;28;20705;-74
2022/07/14 05:54:59;;;;;;;7.60;2.80;;;;;;;;;;5014384;28;20208;-74
2022/07/14 05:57:27;;;;;;;11.70;2.73;;;;;;;;;;5001117;28;20584;-74
2022/07/14 05:59:56;;;;;;;10.30;2.80;;;;;;;;;;4997350;28;20202;-74
2022/07/14 06:02:24;;;;;;;6.20;2.37;;;;;;;;;;4993086;28;20212;-74
2022/07/14 06:04:53;;;;;;;7.27;2.23;;;;;;;;;;4989845;28;20236;-74
2022/07/14 06:07:22;;;;;;;11.30;2.90;;;;;;;;;;4993380;28;20232;-74
2022/07/14 06:09:51;;;;;;;5.97;2.43;;;;;;;;;;4997059;28;20201;-74
2022/07/14 06:12:19;;;;;;;10.03;2.60;;;;;;;;;;4998434;28;20271;-74
2022/07/14 06:14:48;;;;;;;10.93;2.80;;;;;;;;;;5009761;28;20574;-74
2022/07/14 06:17:16;;;;;;;9.67;2.73;;;;;;;;;;4995623;28;20229;-74
2022/07/14 06:19:45;;;;;;;9.63;2.40;;;;;;;;;;5000235;28;20197;-74
2022/07/14 06:22:13;;;;;;;9.60;2.67;;;;;;;;;;4997195;28;20209;-74
2022/07/14 06:24:43;;;;;;;8.10;2.43;;;;;;;;;;4991720;28;20197;-74
2022/07/14 06:27:15;;;;;;;9.80;2.50;;;;;;;;;;4996719;28;20228;-74
2022/07/14 06:29:43;;;;;;;8.23;2.60;;;;;;;;;;4995754;28;20243;-74
2022/07/14 06:32:12;;;;;;;5.60;2.20;;;;;;;;;;4996687;28;20264;-74
2022/07/14 06:34:40;;;;;;;8.48;2.35;;;;;;;;;;4996222;28;20217;-74
2022/07/14 06:37:08;;;;;;;7.28;2.30;;;;;;;;;;4995997;28;20225;-74
2022/07/14 06:39:37;;;;;;;9.63;2.05;;;;;;;;;;4981879;28;20701;-74
2022/07/14 06:42:07;;;;;;;8.20;2.58;;;;;;;;;;4998895;28;20204;-74
2022/07/14 06:44:36;;;;;;;9.88;2.28;;;;;;;;;;5008810;28;20201;-74
2022/07/14 06:47:05;;;;;;;8.63;2.25;;;;;;;;;;4995273;28;20701;-74
2022/07/14 06:49:34;;;;;;;7.00;1.92;;;;;;;;;;5007692;28;20212;-74
2022/07/14 06:52:02;;;;;;;8.60;2.22;;;;;;;;;;4995311;28;20209;-74
2022/07/14 06:54:30;;;;;;;8.15;2.20;;;;;;;;;;4995947;28;20224;-75
2022/07/14 06:56:59;;;;;;;7.72;2.05;;;;;;;;;;4996011;28;20220;-75
2022/07/14 06:59:29;;;;;;;6.18;2.10;;;;;;;;;;4996113;28;20260;-74
2022/07/14 07:01:57;;;;;;;8.15;1.85;;;;;;;;;;4998315;28;20278;-74
2022/07/14 07:04:26;;;;;;;6.22;2.00;;;;;;;;;;4996634;28;20205;-74
2022/07/14 07:06:55;;;;;;;5.30;1.55;;;;;;;;;;4993484;28;20316;-74
2022/07/14 07:09:24;;;;;;;6.47;1.92;;;;;;;;;;5009339;28;20216;-75
2022/07/14 07:11:52;;;;;;;6.50;1.95;;;;;;;;;;4995419;28;20209;-74
2022/07/14 07:14:21;;;;;;;7.32;2.08;;;;;;;;;;4995653;28;20221;-74
2022/07/14 07:16:54;;;;;;;7.15;1.80;;;;;;;;;;4995642;28;20263;-74
2022/07/14 07:19:27;;;;;;;7.47;2.08;;;;;;;;;;4998038;28;20307;-74
2022/07/14 07:21:57;;;;;;;5.30;1.65;;;;;;;;;;4995473;28;20212;-74
2022/07/14 07:24:25;;;;;;;4.72;1.70;;;;;;;;;;4995674;28;20248;-75
2022/07/14 07:26:54;;;;;;;6.60;1.95;;;;;;;;;;4995478;28;20279;-74
2022/07/14 07:29:22;;;;;;;4.97;1.70;;;;;;;;;;4995831;28;20198;-74
2022/07/14 07:31:52;;;;;;;4.60;1.60;;;;;;;;;;4995571;28;20216;-75
2022/07/14 07:34:20;;;;;;;5.45;1.83;;;;;;;;;;4995367;28;20253;-74
2022/07/14 07:36:49;;;;;;;5.65;2.03;;;;;;;;;;4995355;28;20232;-74
2022/07/14 07:39:38;;;;;;;4.03;1.38;;;;;;;;;;4995661;28;20237;-74
2022/07/14 07:42:06;;;;;;;6.07;1.35;;;;;;;;;;4995286;28;20205;-74
2022/07/14 07:44:36;;;;;;;7.68;1.60;;;;;;;;;;5009272;28;20201;-75
2022/07/14 07:47:06;;;;;;;4.50;1.48;;;;;;;;;;4994768;28;20228;-74
2022/07/14 07:49:34;;;;;;;4.35;1.40;;;;;;;;;;4995308;28;20216;-74
2022/07/14 07:52:03;;;;;;;6.72;1.63;;;;;;;;;;4995521;28;20221;-73
2022/07/14 07:54:31;;;;;;;5.00;1.75;;;;;;;;;;4994955;28;20225;-73
2022/07/14 07:57:20;;;;;;;5.30;1.83;;;;;;;;;;4995148;28;20229;-73
2022/07/14 07:59:49;;;;;;;7.22;1.80;;;;;;;;;;4995130;28;20259;-73
2022/07/14 08:02:24;;;;;;;4.03;1.65;;;;;;;;;;4994731;28;20205;-74
2022/07/14 08:04:53;;;;;;;4.45;1.60;;;;;;;;;;4991509;28;20209;-73
2022/07/14 08:07:22;;;;;;;8.48;1.90;;;;;;;;;;4995253;28;20232;-73
2022/07/14 08:09:51;;;;;;;5.95;1.88;;;;;;;;;;4995002;28;20201;-74
2022/07/14 08:12:26;;;;;;;6.13;1.58;;;;;;;;;;4994864;28;20560;-74
2022/07/14 08:14:54;;;;;;;3.40;1.30;;;;;;;;;;4994531;28;20708;-74
2022/07/14 08:17:24;;;;;;;5.43;1.58;;;;;;;;;;4994388;28;20221;-73
2022/07/14 08:19:53;;;;;;;4.38;1.52;;;;;;;;;;4994591;28;20600;-74
2022/07/14 08:22:25;;;;;;;6.07;1.52;;;;;;;;;;4994950;28;20592;-74
2022/07/14 08:24:54;;;;;;;6.55;1.63;;;;;;;;;;4993422;28;20280;-74
2022/07/14 08:27:23;;;;;;;7.10;1.60;;;;;;;;;;4975126;28;20268;-74
2022/07/14 08:29:52;;;;;;;6.05;1.60;;;;;;;;;;4984614;28;20197;-74
2022/07/14 08:32:35;;;;;;;5.72;1.40;;;;;;;;;;4994545;28;20665;-74
2022/07/14 08:35:08;;;;;;;3.05;1.30;;;;;;;;;;4993403;28;20576;-74
2022/07/14 08:37:40;;;;;;;4.75;1.65;;;;;;;;;;4994472;28;20193;-74
2022/07/14 08:40:10;;;;;;;3.63;1.55;;;;;;;;;;4994087;28;20217;-74
2022/07/14 08:42:39;;;;;;;4.47;1.60;;;;;;;;;;4992737;28;20205;-74
2022/07/14 08:45:09;;;;;;;4.68;1.42;;;;;;;;;;4974708;28;20202;-74
2022/07/14 08:47:40;;;;;;;3.63;1.50;;;;;;;;;;4987139;28;20209;-74
2022/07/14 08:50:10;;;;;;;5.15;1.48;;;;;;;;;;4993778;28;20205;-74
2022/07/14 08:52:38;;;;;;;6.85;1.50;;;;;;;;;;4994470;28;20241;-73
2022/07/14 08:55:08;;;;;;;6.30;1.52;;;;;;;;;;4993890;28;20232;-74
2022/07/14 08:57:37;;;;;;;5.25;1.65;;;;;;;;;;4993480;28;20209;-74
2022/07/14 09:00:08;;;;;;;3.70;1.33;;;;;;;;;;4994080;28;20252;-74
2022/07/14 09:02:38;;;;;;;3.85;1.20;;;;;;;;;;4993813;28;20297;-73
2022/07/14 09:05:28;;;;;;;5.63;1.60;;;;;;;;;;4993610;28;20753;-74
2022/07/14 09:07:57;;;;;;;5.00;1.27;;;;;;;;;;4994158;28;20224;-73
2022/07/14 09:10:27;;;;;;;6.10;1.40;;;;;;;;;;4994288;28;20209;-74
2022/07/14 09:13:10;;;;;;;4.82;1.83;;;;;;;;;;4994398;28;20255;-74
2022/07/14 09:15:45;;;;;;;4.70;1.70;;;;;;;;;;4993704;28;20256;-73
2022/07/14 09:18:20;;;;;;;3.75;1.35;;;;;;;;;;4987616;28;20590;-74
2022/07/14 09:20:52;;;;;;;4.63;1.60;;;;;;;;;;4994116;28;20212;-74
2022/07/14 09:23:27;;;;;;;2.80;1.30;;;;;;;;;;4994753;28;20185;-74
2022/07/14 09:26:10;;;;;;;4.50;1.40;;;;;;;;;;4993693;28;20240;-74
2022/07/14 09:28:40;;;;;;;5.07;1.13;;;;;;;;;;4993768;28;20285;-74
2022/07/14 09:31:21;;;;;;;4.57;1.38;;;;;;;;;;4992948;28;20212;-74
2022/07/14 09:33:50;;;;;;;5.38;1.35;;;;;;;;;;4993821;28;20596;-73
2022/07/14 09:36:28;;;;;;;2.80;1.25;;;;;;;;;;4993577;28;20239;-74
2022/07/14 09:39:01;;;;;;;2.70;1.20;;;;;;;;;;4993893;28;20574;-73
2022/07/14 09:41:30;;;;;;;4.32;1.33;;;;;;;;;;4993275;28;20205;-74
2022/07/14 09:44:13;;;;;;;3.95;1.10;;;;;;;;;;4992467;28;20296;-74
2022/07/14 09:46:46;;;;;;;5.28;1.38;;;;;;;;;;4990269;28;20865;-74
2022/07/14 09:49:15;;;;;;;4.25;1.20;;;;;;;;;;4993211;28;20213;-73
2022/07/14 09:51:58;;;;;;;2.88;1.23;;;;;;;;;;4993679;28;20260;-75
2022/07/14 09:54:54;;;;;;;4.45;1.52;;;;;;;;;;4993891;28;20209;-74
2022/07/14 09:57:27;;;;;;;3.05;1.20;;;;;;;;;;4959266;28;20237;-74
2022/07/14 09:59:57;;;;;;;3.90;1.30;;;;;;;;;;4993123;28;20193;-74
2022/07/14 10:02:29;;;;;;;5.82;1.33;;;;;;;;;;4979612;28;20210;-75
2022/07/14 10:05:12;;;;;;;2.97;1.23;;;;;;;;;;4999451;28;20209;-77
2022/07/14 10:07:50;;;;;;;3.70;1.25;;;;;;;;;;4996876;28;20197;-73
2022/07/14 10:10:24;;;;;;;3.67;1.10;;;;;;;;;;4994091;28;20677;-74
2022/07/14 10:12:53;;;;;;;2.85;1.30;;;;;;;;;;4993468;28;20217;-73
2022/07/14 10:15:22;;;;;;;3.58;1.20;;;;;;;;;;4993398;28;20286;-73
2022/07/14 10:17:50;;;;;;;2.65;0.93;;;;;;;;;;4993739;28;20217;-74
2022/07/14 10:20:19;;;;;;;4.18;1.20;;;;;;;;;;4997275;28;20209;-74
2022/07/14 10:22:50;;;;;;;2.67;1.35;;;;;;;;;;4997257;28;20279;-73
2022/07/14 10:25:19;;;;;;;4.07;1.40;;;;;;;;;;4996499;28;20229;-73
2022/07/14 10:27:48;;;;;;;3.53;1.30;;;;;;;;;;4997511;28;20212;-74
2022/07/14 10:30:16;;;;;;;4.30;1.40;;;;;;;;;;5003732;28;20658;-74
2022/07/14 10:32:49;;;;;;;4.47;1.38;;;;;;;;;;4996673;28;20209;-74
2022/07/14 10:35:24;;;;;;;2.30;1.38;;;;;;;;;;4996275;28;20608;-73
2022/07/14 10:38:08;;;;;;;4.75;1.67;;;;;;;;;;4999507;28;20206;-74
2022/07/14 10:40:39;;;;;;;5.10;1.42;;;;;;;;;;5003265;28;20644;-73
2022/07/14 10:43:09;;;;;;;3.08;1.55;;;;;;;;;;4994222;28;20659;-74
2022/07/14 10:45:48;;;;;;;6.18;1.80;;;;;;;;;;4991052;28;20287;-73
2022/07/14 10:48:28;;;;;;;5.72;1.90;;;;;;;;;;4996036;28;20213;-73
2022/07/14 10:51:14;;;;;;;3.45;1.50;;;;;;;;;;4996251;28;20295;-73
2022/07/14 10:53:58;;;;;;;3.38;1.60;;;;;;;;;;4996043;28;20189;-73
2022/07/14 10:56:48;;;;;;;3.38;1.70;;;;;;;;;;4990462;28;20240;-73
2022/07/14 10:59:32;;;;;;;3.22;1.80;;;;;;;;;;4996095;28;20208;-73
2022/07/14 11:02:21;;;;;;;4.10;1.90;;;;;;;;;;4999033;28;20680;-73
2022/07/14 11:05:08;;;;;;;3.13;1.70;;;;;;;;;;5008897;28;20289;-73
2022/07/14 11:07:38;;;;;;;5.47;1.95;;;;;;;;;;4977080;28;20285;-73
2022/07/14 11:10:31;;;;;;;3.03;1.58;;;;;;;;;;4986279;28;20628;-73
2022/07/14 11:13:10;;;;;;;2.92;1.50;;;;;;;;;;4995860;28;20206;-73
2022/07/14 11:15:39;;;;;;;5.20;1.75;;;;;;;;;;4995610;28;20256;-74
2022/07/14 11:18:28;;;;;;;5.15;1.70;;;;;;;;;;5009427;28;20204;-74
2022/07/14 11:20:59;;;;;;;3.75;1.40;;;;;;;;;;4999425;28;20206;-73
2022/07/14 11:23:28;;;;;;;3.85;1.80;;;;;;;;;;4995692;28;20231;-73
2022/07/14 11:25:57;;;;;;;5.10;1.73;;;;;;;;;;4995407;28;20272;-74
2022/07/14 11:28:39;;;;;;;4.57;1.60;;;;;;;;;;4995684;28;20216;-73
2022/07/14 11:31:12;;;;;;;2.55;1.35;;;;;;;;;;4995095;28;20201;-74
2022/07/14 11:36:28;;;;;;;6.05;1.60;;;;;;;;;;5012223;28;20231;-74
2022/07/14 11:39:24;;;;;;;5.85;1.75;;;;;;;;;;4991461;28;20212;-74
2022/07/14 11:42:02;;;;;;;4.00;1.40;;;;;;;;;;4995542;28;20610;-74
2022/07/14 11:44:48;;;;;;;3.30;1.50;;;;;;;;;;4995815;28;20264;-74
2022/07/14 11:47:18;;;;;;;3.80;1.20;;;;;;;;;;4995294;28;20312;-74
2022/07/14 11:50:08;;;;;;;3.22;1.50;;;;;;;;;;4989895;28;20212;-74
2022/07/14 11:52:40;;;;;;;5.35;1.45;;;;;;;;;;4987648;28;20209;-74
2022/07/14 11:55:10;;;;;;;4.30;1.50;;;;;;;;;;4994842;28;20206;-74
2022/07/14 11:57:39;;;;;;;4.22;1.20;;;;;;;;;;4994990;28;20271;-74
2022/07/14 12:00:10;;;;;;;3.70;1.48;;;;;;;;;;4994946;28;20677;-74
2022/07/14 12:02:40;;;;;;;3.58;1.23;;;;;;;;;;4994623;28;20205;-74
2022/07/14 12:05:13;;;;;;;2.28;1.40;;;;;;;;;;4985101;28;20571;-74
2022/07/14 12:07:46;;;;;;;3.72;1.30;;;;;;;;;;4995555;28;20198;-74
2022/07/14 12:10:15;;;;;;;2.15;1.35;;;;;;;;;;4994640;28;20209;-74
2022/07/14 12:12:45;;;;;;;4.43;1.20;;;;;;;;;;5000069;28;20212;-74
2022/07/14 12:15:24;;;;;;;6.30;1.30;;;;;;;;;;4993815;28;20209;-74
2022/07/14 12:17:53;;;;;;;2.72;1.27;;;;;;;;;;4994864;28;20229;-74
2022/07/14 12:20:23;;;;;;;4.38;1.30;;;;;;;;;;4994356;28;20205;-74
2022/07/14 12:22:53;;;;;;;3.92;1.30;;;;;;;;;;4994033;28;20209;-74
2022/07/14 12:25:28;;;;;;;1.98;1.10;;;;;;;;;;4993864;28;20225;-74
2022/07/14 12:27:57;;;;;;;5.78;1.35;;;;;;;;;;4994801;28;20216;-74
2022/07/14 12:30:42;;;;;;;6.32;1.42;;;;;;;;;;4994196;28;20205;-74
2022/07/14 12:33:12;;;;;;;4.15;1.30;;;;;;;;;;4996290;28;20252;-74
2022/07/14 12:35:41;;;;;;;4.50;1.30;;;;;;;;;;4994751;28;20229;-74
2022/07/14 12:38:10;;;;;;;4.32;1.38;;;;;;;;;;4993967;28;20232;-75
2022/07/14 12:40:46;;;;;;;4.38;1.13;;;;;;;;;;4994977;28;20244;-75
2022/07/14 12:43:21;;;;;;;2.58;1.20;;;;;;;;;;5000426;28;20708;-75
2022/07/14 12:46:02;;;;;;;2.70;1.23;;;;;;;;;;4654160;28;9999659;-74
2022/07/14 12:48:32;;;;;;;3.35;1.50;;;;;;;;;;4993447;28;20239;-74
2022/07/14 12:51:15;;;;;;;3.97;1.40;;;;;;;;;;4991397;28;20365;-74
2022/07/14 12:53:56;;;;;;;3.17;1.38;;;;;;;;;;4992891;28;20194;-75
2022/07/14 12:56:24;;;;;;;2.40;1.60;;;;;;;;;;4989203;28;20228;-74
2022/07/14 12:58:53;;;;;;;4.30;1.60;;;;;;;;;;4990693;28;20205;-75
2022/07/14 13:01:24;;;;;;;4.07;1.50;;;;;;;;;;4990943;28;20213;-74
2022/07/14 13:03:59;;;;;;;3.05;1.15;;;;;;;;;;4991745;28;20233;-74
2022/07/14 13:06:29;;;;;;;3.75;1.23;;;;;;;;;;4989415;28;20232;-75
2022/07/14 13:08:58;;;;;;;5.28;1.40;;;;;;;;;;4991257;28;20205;-74
2022/07/14 13:11:29;;;;;;;6.63;1.50;;;;;;;;;;4992091;28;20217;-74
2022/07/14 13:13:58;;;;;;;2.85;1.17;;;;;;;;;;5006711;28;20931;-74
2022/07/14 13:16:30;;;;;;;4.63;1.30;;;;;;;;;;4990405;28;20279;-74
2022/07/14 13:19:04;;;;;;;3.55;1.42;;;;;;;;;;4990468;28;20205;-76
2022/07/14 13:21:53;;;;;;;3.22;1.33;;;;;;;;;;4984971;28;20915;-75
2022/07/14 13:24:23;;;;;;;7.10;1.50;;;;;;;;;;4991547;28;20274;-74
2022/07/14 13:26:59;;;;;;;3.30;1.45;;;;;;;;;;4991682;28;20225;-74
2022/07/14 13:29:27;;;;;;;4.72;1.88;;;;;;;;;;4991451;28;20611;-75
2022/07/14 13:31:57;;;;;;;5.20;1.73;;;;;;;;;;4991802;28;20583;-74
2022/07/14 13:34:26;;;;;;;5.45;1.42;;;;;;;;;;4983205;28;20626;-75
2022/07/14 13:36:54;;;;;;;2.42;1.15;;;;;;;;;;4978646;28;20233;-75
2022/07/14 13:39:23;;;;;;;2.25;1.35;;;;;;;;;;4975601;28;20213;-75
2022/07/14 13:41:54;;;;;;;3.58;1.23;;;;;;;;;;4991737;28;20197;-75
2022/07/14 13:44:23;;;;;;;3.15;1.30;;;;;;;;;;4991111;28;20684;-74
2022/07/14 13:46:52;;;;;;;4.80;1.33;;;;;;;;;;5002515;28;20225;-74
2022/07/14 13:49:22;;;;;;;5.70;1.30;;;;;;;;;;4993134;28;20324;-75
2022/07/14 13:52:09;;;;;;;5.50;1.50;;;;;;;;;;4991430;28;20644;-75
2022/07/14 13:54:38;;;;;;;2.42;1.13;;;;;;;;;;4994601;28;20566;-75
2022/07/14 13:57:07;;;;;;;4.57;1.23;;;;;;;;;;4994687;28;20231;-74
2022/07/14 13:59:36;;;;;;;3.05;1.35;;;;;;;;;;4996699;28;20201;-74
2022/07/14 14:02:04;;;;;;;3.17;1.30;;;;;;;;;;4995179;28;20217;-74
2022/07/14 14:04:34;;;;;;;4.63;1.10;;;;;;;;;;4995139;28;20198;-75
2022/07/14 14:07:03;;;;;;;3.08;1.30;;;;;;;;;;4993965;28;20241;-74
2022/07/14 14:09:31;;;;;;;2.50;1.25;;;;;;;;;;4994807;28;20267;-75
2022/07/14 14:12:02;;;;;;;6.93;1.90;;;;;;;;;;4994690;28;20279;-75
2022/07/14 14:14:30;;;;;;;6.18;1.40;;;;;;;;;;4994989;28;20201;-75
2022/07/14 14:16:59;;;;;;;4.15;1.10;;;;;;;;;;4983193;28;20683;-74
2022/07/14 14:19:27;;;;;;;6.70;1.77;;;;;;;;;;4981270;28;20260;-75
2022/07/14 14:21:57;;;;;;;2.47;1.02;;;;;;;;;;4996659;28;20209;-75
2022/07/14 14:24:25;;;;;;;4.47;1.40;;;;;;;;;;4981075;28;20208;-74
2022/07/14 14:26:55;;;;;;;2.28;0.75;;;;;;;;;;4991964;28;20233;-74
2022/07/14 14:29:23;;;;;;;3.75;1.00;;;;;;;;;;4987112;28;20264;-75
2022/07/14 14:31:52;;;;;;;2.95;1.15;;;;;;;;;;4996761;28;20214;-75
2022/07/14 14:34:20;;;;;;;3.00;0.98;;;;;;;;;;4996264;28;20204;-75
2022/07/14 14:36:49;;;;;;;2.17;0.93;;;;;;;;;;4995828;28;20225;-75
2022/07/14 14:39:19;;;;;;;1.73;1.00;;;;;;;;;;4996605;28;20229;-75
2022/07/14 14:41:47;;;;;;;2.40;1.02;;;;;;;;;;4996505;28;20273;-74
2022/07/14 14:44:16;;;;;;;2.47;0.82;;;;;;;;;;4995984;28;20209;-74
2022/07/14 14:46:44;;;;;;;2.53;0.90;;;;;;;;;;5004166;28;20696;-74
2022/07/14 14:49:13;;;;;;;2.72;0.95;;;;;;;;;;5002919;28;20677;-74
2022/07/14 14:51:41;;;;;;;3.50;1.10;;;;;;;;;;4995968;28;20694;-74
2022/07/14 14:54:10;;;;;;;1.75;0.70;;;;;;;;;;5009262;28;20209;-75
2022/07/14 14:56:40;;;;;;;2.13;0.85;;;;;;;;;;4994027;28;20320;-75
2022/07/14 14:59:08;;;;;;;2.50;0.70;;;;;;;;;;4996458;28;20651;-74
2022/07/14 15:01:38;;;;;;;3.28;0.80;;;;;;;;;;4995927;28;20651;-74
2022/07/14 15:04:06;;;;;;;2.88;0.77;;;;;;;;;;4979796;28;20201;-74
2022/07/14 15:06:35;;;;;;;1.58;0.80;;;;;;;;;;4995393;28;20263;-74
2022/07/14 15:09:04;;;;;;;1.52;0.80;;;;;;;;;;4995340;28;20256;-75